Time;durP1;ratioP1;P1;durP2;ratioP2;P2;SDS_P1;SDS_P2;PMS_P1;PMS_P2;Temp;Humidity;BMP_temperature;BMP_pressure;BME280_temperature;BME280_humidity;BME280_pressure;Samples;Min_cycle;Max_cycle;Signal;HPM_P1;HPM_P2
2023/07/18 00:01:07;;;;;;;12.68;6.70;;;;;;;;;;6292022;28;20619;-78
2023/07/18 00:04:09;;;;;;;13.02;6.30;;;;;;;;;;6294286;28;20107;-78
2023/07/18 00:07:11;;;;;;;9.80;6.32;;;;;;;;;;6299145;28;20055;-78
2023/07/18 00:10:12;;;;;;;13.35;6.28;;;;;;;;;;6298479;28;20048;-77
2023/07/18 00:13:14;;;;;;;10.20;5.85;;;;;;;;;;6297587;28;20052;-76
2023/07/18 00:16:17;;;;;;;8.23;5.95;;;;;;;;;;6297955;28;20048;-76
2023/07/18 00:19:19;;;;;;;13.52;5.95;;;;;;;;;;6298933;28;20320;-75
2023/07/18 00:22:21;;;;;;;15.98;6.05;;;;;;;;;;6297849;28;20048;-78
2023/07/18 00:25:22;;;;;;;13.57;6.15;;;;;;;;;;6280402;28;20383;-77
2023/07/18 00:28:24;;;;;;;17.75;6.32;;;;;;;;;;6285518;28;20053;-77
2023/07/18 00:31:27;;;;;;;13.00;6.25;;;;;;;;;;6297438;28;20112;-77
2023/07/18 00:34:28;;;;;;;10.15;6.20;;;;;;;;;;6300800;28;20063;-77
2023/07/18 00:37:29;;;;;;;13.65;6.32;;;;;;;;;;6299001;28;20048;-77
2023/07/18 00:40:31;;;;;;;13.02;6.75;;;;;;;;;;6299629;28;20118;-77
2023/07/18 00:43:33;;;;;;;12.50;6.68;;;;;;;;;;6301768;28;20049;-77
2023/07/18 00:46:36;;;;;;;17.13;6.38;;;;;;;;;;6304152;28;20589;-77
2023/07/18 00:49:37;;;;;;;9.75;6.30;;;;;;;;;;6303260;28;20360;-77
2023/07/18 00:52:40;;;;;;;14.75;6.85;;;;;;;;;;6303903;28;20056;-77
2023/07/18 00:55:42;;;;;;;15.57;6.32;;;;;;;;;;6303295;28;20283;-77
2023/07/18 00:58:44;;;;;;;19.38;7.25;;;;;;;;;;6301428;28;20051;-77
2023/07/18 01:01:47;;;;;;;14.70;6.78;;;;;;;;;;6302840;28;20081;-77
2023/07/18 01:04:48;;;;;;;;;;;;;;;;;;6302794;28;20052;-77
2023/07/18 01:07:50;;;;;;;17.45;7.45;;;;;;;;;;6305323;28;19962;-77
2023/07/18 01:10:51;;;;;;;13.10;6.97;;;;;;;;;;6302286;28;20094;-76
2023/07/18 01:13:53;;;;;;;11.15;7.65;;;;;;;;;;6303624;28;20107;-77
2023/07/18 01:16:55;;;;;;;11.82;7.05;;;;;;;;;;6302845;28;20051;-77
2023/07/18 01:19:57;;;;;;;11.60;7.40;;;;;;;;;;6301999;28;20055;-77
2023/07/18 01:23:03;;;;;;;10.13;7.30;;;;;;;;;;6303528;28;20056;-77
2023/07/18 01:26:04;;;;;;;16.27;7.10;;;;;;;;;;6301234;28;20056;-76
2023/07/18 01:29:06;;;;;;;13.07;7.07;;;;;;;;;;6304309;28;20075;-76
2023/07/18 01:32:08;;;;;;;12.38;7.07;;;;;;;;;;6302106;28;20333;-77
2023/07/18 01:35:10;;;;;;;15.82;7.32;;;;;;;;;;6303618;28;20055;-77
2023/07/18 01:38:13;;;;;;;13.13;7.30;;;;;;;;;;6302523;28;20233;-77
2023/07/18 01:41:14;;;;;;;10.38;6.80;;;;;;;;;;6300464;28;20071;-77
2023/07/18 01:44:16;;;;;;;14.32;7.32;;;;;;;;;;6304245;28;20074;-77
2023/07/18 01:47:17;;;;;;;16.92;7.65;;;;;;;;;;6302699;28;20060;-77
2023/07/18 01:50:19;;;;;;;17.27;8.52;;;;;;;;;;6300802;28;20320;-76
2023/07/18 01:53:22;;;;;;;14.13;6.85;;;;;;;;;;6301182;28;20320;-77
2023/07/18 01:56:23;;;;;;;13.00;7.88;;;;;;;;;;6301858;28;20048;-77
2023/07/18 01:59:25;;;;;;;12.50;7.57;;;;;;;;;;6303052;28;20048;-77
2023/07/18 02:02:28;;;;;;;11.02;7.30;;;;;;;;;;6301691;28;20060;-77
2023/07/18 02:05:31;;;;;;;13.27;7.22;;;;;;;;;;6302940;28;20054;-77
2023/07/18 02:08:33;;;;;;;13.18;7.63;;;;;;;;;;6303476;28;20079;-77
2023/07/18 02:11:35;;;;;;;15.35;7.57;;;;;;;;;;6304362;28;20052;-77
2023/07/18 02:14:37;;;;;;;13.40;7.55;;;;;;;;;;6303069;28;20298;-77
2023/07/18 02:17:38;;;;;;;13.05;8.20;;;;;;;;;;6301615;28;20040;-76
2023/07/18 02:20:40;;;;;;;11.65;7.35;;;;;;;;;;6306048;28;20051;-77
2023/07/18 02:23:42;;;;;;;12.15;7.53;;;;;;;;;;6304962;28;20098;-78
2023/07/18 02:26:44;;;;;;;13.60;7.82;;;;;;;;;;6300905;28;20067;-75
2023/07/18 02:29:46;;;;;;;14.20;7.85;;;;;;;;;;6298305;28;20063;-77
2023/07/18 02:32:48;;;;;;;14.50;7.80;;;;;;;;;;6301873;28;20301;-76
2023/07/18 02:35:50;;;;;;;14.52;7.53;;;;;;;;;;6303994;28;20052;-77
2023/07/18 02:38:53;;;;;;;13.00;7.63;;;;;;;;;;6301571;28;20052;-77
2023/07/18 02:41:54;;;;;;;12.60;7.65;;;;;;;;;;6301097;28;20056;-77
2023/07/18 02:44:56;;;;;;;13.75;8.00;;;;;;;;;;6298943;28;20251;-77
2023/07/18 02:47:58;;;;;;;13.15;8.35;;;;;;;;;;6298111;28;20060;-77
2023/07/18 02:50:59;;;;;;;10.40;7.50;;;;;;;;;;6301179;28;20040;-77
2023/07/18 02:54:02;;;;;;;12.95;7.47;;;;;;;;;;6300739;28;20044;-78
2023/07/18 02:57:04;;;;;;;12.38;7.93;;;;;;;;;;6299155;28;20059;-77
2023/07/18 03:00:19;;;;;;;17.23;8.67;;;;;;;;;;6303020;28;20052;-77
2023/07/18 03:03:22;;;;;;;14.98;7.80;;;;;;;;;;6300532;28;20102;-75
2023/07/18 03:06:24;;;;;;;18.98;8.07;;;;;;;;;;6300976;28;20052;-76
2023/07/18 03:09:27;;;;;;;13.30;8.05;;;;;;;;;;6301390;28;20056;-77
2023/07/18 03:12:28;;;;;;;13.05;8.43;;;;;;;;;;6299889;28;20245;-75
2023/07/18 03:15:30;;;;;;;15.00;8.95;;;;;;;;;;6299940;28;20732;-77
2023/07/18 03:18:31;;;;;;;12.77;8.30;;;;;;;;;;6299925;28;20101;-76
2023/07/18 03:21:32;;;;;;;14.75;8.27;;;;;;;;;;6302047;28;20056;-77
2023/07/18 03:24:35;;;;;;;13.35;8.13;;;;;;;;;;6299188;28;20056;-75
2023/07/18 03:27:37;;;;;;;15.43;8.27;;;;;;;;;;6300105;28;20123;-77
2023/07/18 03:30:40;;;;;;;13.13;8.98;;;;;;;;;;6298241;28;20048;-77
2023/07/18 03:33:41;;;;;;;12.32;7.38;;;;;;;;;;6298906;28;20052;-78
2023/07/18 03:36:42;;;;;;;12.52;8.38;;;;;;;;;;6301048;28;20055;-77
2023/07/18 03:39:45;;;;;;;15.18;7.72;;;;;;;;;;6300827;28;20048;-75
2023/07/18 03:42:47;;;;;;;11.32;7.65;;;;;;;;;;6299701;28;20060;-77
2023/07/18 03:45:49;;;;;;;12.20;9.02;;;;;;;;;;6300560;28;20051;-76
2023/07/18 03:48:51;;;;;;;19.38;8.98;;;;;;;;;;6300790;28;20102;-77
2023/07/18 03:51:53;;;;;;;14.40;8.85;;;;;;;;;;6299623;28;20750;-77
2023/07/18 03:54:55;;;;;;;13.25;9.10;;;;;;;;;;6299306;28;20255;-77
2023/07/18 03:57:57;;;;;;;15.43;8.70;;;;;;;;;;6299911;28;20324;-77
2023/07/18 04:00:58;;;;;;;17.70;9.07;;;;;;;;;;6299628;28;20068;-77
2023/07/18 04:04:00;;;;;;;19.45;9.35;;;;;;;;;;6300719;28;20056;-77
2023/07/18 04:07:02;;;;;;;16.85;9.10;;;;;;;;;;6299638;28;20063;-76
2023/07/18 04:10:05;;;;;;;15.83;8.80;;;;;;;;;;6300278;28;20052;-77
2023/07/18 04:13:07;;;;;;;14.18;8.80;;;;;;;;;;6300112;28;20056;-77
2023/07/18 04:16:08;;;;;;;15.48;8.90;;;;;;;;;;6301220;28;20256;-77
2023/07/18 04:19:10;;;;;;;13.82;9.52;;;;;;;;;;6303296;28;20040;-77
2023/07/18 04:22:11;;;;;;;18.60;9.55;;;;;;;;;;6304535;28;20259;-77
2023/07/18 04:25:14;;;;;;;14.77;9.63;;;;;;;;;;6308869;28;20040;-77
2023/07/18 04:28:15;;;;;;;20.40;8.95;;;;;;;;;;6307276;28;20056;-77
2023/07/18 04:31:17;;;;;;;17.15;9.40;;;;;;;;;;6307739;28;20270;-77
2023/07/18 04:34:18;;;;;;;17.20;8.60;;;;;;;;;;6305155;28;20051;-77
2023/07/18 04:37:20;;;;;;;19.13;9.38;;;;;;;;;;6304862;28;20078;-77
2023/07/18 04:40:24;;;;;;;14.57;9.07;;;;;;;;;;6304574;28;20056;-77
2023/07/18 04:43:25;;;;;;;12.85;8.38;;;;;;;;;;6304613;28;20047;-76
2023/07/18 04:46:27;;;;;;;17.02;9.07;;;;;;;;;;6302843;28;20056;-75
2023/07/18 04:49:30;;;;;;;13.35;8.63;;;;;;;;;;6303018;28;20060;-77
2023/07/18 04:52:31;;;;;;;20.50;10.07;;;;;;;;;;6303141;28;20063;-77
2023/07/18 04:55:35;;;;;;;14.60;8.77;;;;;;;;;;6302771;28;20057;-77
2023/07/18 04:58:37;;;;;;;12.07;8.60;;;;;;;;;;6297259;28;20071;-77
2023/07/18 05:01:41;;;;;;;17.27;9.30;;;;;;;;;;6295487;28;20048;-77
2023/07/18 05:04:42;;;;;;;14.85;8.43;;;;;;;;;;6296721;28;20064;-77
2023/07/18 05:07:44;;;;;;;13.90;8.82;;;;;;;;;;6296566;28;20044;-77
2023/07/18 05:10:47;;;;;;;12.13;8.23;;;;;;;;;;6292455;28;20150;-77
2023/07/18 05:13:49;;;;;;;15.07;8.13;;;;;;;;;;6295074;28;20056;-76
2023/07/18 05:16:50;;;;;;;16.92;9.00;;;;;;;;;;6292721;28;20071;-76
2023/07/18 05:19:51;;;;;;;12.88;8.45;;;;;;;;;;6293768;28;20375;-76
2023/07/18 05:22:53;;;;;;;19.05;9.02;;;;;;;;;;6293914;28;20098;-76
2023/07/18 05:25:57;;;;;;;14.50;9.02;;;;;;;;;;6293270;28;20049;-76
2023/07/18 05:28:58;;;;;;;12.32;9.27;;;;;;;;;;6295402;28;20235;-76
2023/07/18 05:32:00;;;;;;;16.88;8.82;;;;;;;;;;6294313;28;20340;-77
2023/07/18 05:35:02;;;;;;;14.07;8.43;;;;;;;;;;6294178;28;20064;-76
2023/07/18 05:38:05;;;;;;;14.43;8.57;;;;;;;;;;6296778;28;20075;-76
2023/07/18 05:41:07;;;;;;;13.93;8.60;;;;;;;;;;6295173;28;20278;-76
2023/07/18 05:44:10;;;;;;;15.70;9.38;;;;;;;;;;6293895;28;20106;-76
2023/07/18 05:47:11;;;;;;;15.83;8.27;;;;;;;;;;6292884;28;20052;-76
2023/07/18 05:50:13;;;;;;;15.68;7.90;;;;;;;;;;6293617;28;20061;-75
2023/07/18 05:53:14;;;;;;;11.48;8.05;;;;;;;;;;6292823;28;20174;-76
2023/07/18 05:56:17;;;;;;;16.92;8.38;;;;;;;;;;6294697;28;20328;-75
2023/07/18 05:59:18;;;;;;;13.05;8.35;;;;;;;;;;6291691;28;20125;-76
2023/07/18 06:02:21;;;;;;;12.13;8.63;;;;;;;;;;6292609;28;20098;-75
2023/07/18 06:05:22;;;;;;;14.93;8.55;;;;;;;;;;6290746;28;20053;-75
2023/07/18 06:08:24;;;;;;;12.40;8.00;;;;;;;;;;6293322;28;20045;-77
2023/07/18 06:11:26;;;;;;;9.07;7.80;;;;;;;;;;6293507;28;20056;-77
2023/07/18 06:14:28;;;;;;;10.98;7.50;;;;;;;;;;6294281;28;20263;-77
2023/07/18 06:17:29;;;;;;;13.00;7.90;;;;;;;;;;6290536;28;20049;-77
2023/07/18 06:20:32;;;;;;;13.57;7.80;;;;;;;;;;6294200;28;20241;-77
2023/07/18 06:23:34;;;;;;;10.10;7.80;;;;;;;;;;6293941;28;20140;-77
2023/07/18 06:26:36;;;;;;;18.02;8.68;;;;;;;;;;6293028;28;20056;-77
2023/07/18 06:29:38;;;;;;;11.73;8.13;;;;;;;;;;6292396;28;20090;-77
2023/07/18 06:32:40;;;;;;;13.68;7.85;;;;;;;;;;6290552;28;20418;-77
2023/07/18 06:35:42;;;;;;;17.27;8.32;;;;;;;;;;6294867;28;20060;-77
2023/07/18 06:38:43;;;;;;;12.55;7.75;;;;;;;;;;6295222;28;20060;-77
2023/07/18 06:41:46;;;;;;;13.60;7.97;;;;;;;;;;6293028;28;20056;-77
2023/07/18 06:44:48;;;;;;;12.13;7.75;;;;;;;;;;6293521;28;20120;-77
2023/07/18 06:47:49;;;;;;;11.48;7.47;;;;;;;;;;6292419;28;20116;-77
2023/07/18 06:50:51;;;;;;;15.20;7.72;;;;;;;;;;6290826;28;20363;-77
2023/07/18 06:53:53;;;;;;;13.15;7.80;;;;;;;;;;6292944;28;20049;-77
2023/07/18 06:56:56;;;;;;;14.40;8.80;;;;;;;;;;6300878;28;20071;-77
2023/07/18 06:59:57;;;;;;;10.77;7.65;;;;;;;;;;6299587;28;20146;-77
2023/07/18 07:02:59;;;;;;;11.32;7.38;;;;;;;;;;6302342;28;20060;-77
2023/07/18 07:06:00;;;;;;;13.63;8.27;;;;;;;;;;6301332;28;20059;-77
2023/07/18 07:09:01;;;;;;;13.82;7.65;;;;;;;;;;6299890;28;20048;-77
2023/07/18 07:12:05;;;;;;;15.65;7.88;;;;;;;;;;6301490;28;20098;-76
2023/07/18 07:15:07;;;;;;;16.42;7.68;;;;;;;;;;6299562;28;20056;-77
2023/07/18 07:18:08;;;;;;;11.25;6.80;;;;;;;;;;6301241;28;20113;-77
2023/07/18 07:21:10;;;;;;;11.45;7.65;;;;;;;;;;6299839;28;20094;-77
2023/07/18 07:24:11;;;;;;;11.45;7.90;;;;;;;;;;6301068;28;20044;-77
2023/07/18 07:27:14;;;;;;;17.60;7.47;;;;;;;;;;6298804;28;20048;-78
2023/07/18 07:30:16;;;;;;;;;;;;;;;;;;6301751;28;20060;-77
2023/07/18 07:33:18;;;;;;;13.13;7.30;;;;;;;;;;6303957;28;19962;-77
2023/07/18 07:36:20;;;;;;;13.25;7.18;;;;;;;;;;6306025;28;20048;-75
2023/07/18 07:39:22;;;;;;;13.30;7.50;;;;;;;;;;6301623;28;20411;-77
2023/07/18 07:42:25;;;;;;;14.32;7.88;;;;;;;;;;6299089;28;20086;-77
2023/07/18 07:45:26;;;;;;;;;;;;;;;;;;6299298;28;20143;-76
2023/07/18 07:48:27;;;;;;;13.57;7.78;;;;;;;;;;6298856;28;20254;-77
2023/07/18 07:51:29;;;;;;;9.48;6.25;;;;;;;;;;6299321;28;20053;-77
2023/07/18 07:54:30;;;;;;;11.30;6.70;;;;;;;;;;6299307;28;20320;-76
2023/07/18 07:57:33;;;;;;;11.63;7.25;;;;;;;;;;6298605;28;20048;-74
2023/07/18 08:00:35;;;;;;;16.38;7.78;;;;;;;;;;6299009;28;20052;-77
2023/07/18 08:03:36;;;;;;;11.02;7.45;;;;;;;;;;6295802;28;20095;-74
2023/07/18 08:06:38;;;;;;;15.00;7.45;;;;;;;;;;6302674;28;20362;-77
2023/07/18 08:09:39;;;;;;;10.65;6.70;;;;;;;;;;6299326;28;20075;-77
2023/07/18 08:12:42;;;;;;;11.23;7.50;;;;;;;;;;6298168;28;20333;-76
2023/07/18 08:15:43;;;;;;;10.25;6.85;;;;;;;;;;6299042;28;20129;-77
2023/07/18 08:18:45;;;;;;;10.75;6.85;;;;;;;;;;6298359;28;20075;-76
2023/07/18 08:21:46;;;;;;;11.88;6.18;;;;;;;;;;6300395;28;20686;-76
2023/07/18 08:24:48;;;;;;;13.65;7.63;;;;;;;;;;6297533;28;20052;-76
2023/07/18 08:27:51;;;;;;;11.70;6.35;;;;;;;;;;6299997;28;20044;-76
2023/07/18 08:30:53;;;;;;;8.70;6.03;;;;;;;;;;6298312;28;20104;-76
2023/07/18 08:33:54;;;;;;;8.10;6.10;;;;;;;;;;6300148;28;20321;-77
2023/07/18 08:36:56;;;;;;;10.13;6.15;;;;;;;;;;6299821;28;20157;-76
2023/07/18 08:39:58;;;;;;;11.57;5.88;;;;;;;;;;6300429;28;20106;-76
2023/07/18 08:42:59;;;;;;;;;;;;;;;;;;6298371;28;20064;-76
2023/07/18 08:46:04;;;;;;;15.48;7.05;;;;;;;;;;6298270;28;19916;-76
2023/07/18 08:49:06;;;;;;;14.45;6.60;;;;;;;;;;6299144;28;20108;-77
2023/07/18 08:52:08;;;;;;;12.38;6.35;;;;;;;;;;6298342;28;20279;-75
2023/07/18 08:55:09;;;;;;;11.82;6.75;;;;;;;;;;6298205;28;20059;-76
2023/07/18 08:58:11;;;;;;;15.57;6.47;;;;;;;;;;6298247;28;20129;-76
2023/07/18 09:01:15;;;;;;;14.97;7.27;;;;;;;;;;6298440;28;20335;-77
2023/07/18 09:04:16;;;;;;;12.45;7.25;;;;;;;;;;6303163;28;20056;-76
2023/07/18 09:07:19;;;;;;;12.63;6.93;;;;;;;;;;6302564;28;20052;-76
2023/07/18 09:10:21;;;;;;;8.95;6.50;;;;;;;;;;6304511;28;20115;-74
2023/07/18 09:13:25;;;;;;;14.88;7.70;;;;;;;;;;6302374;28;20041;-74
2023/07/18 09:16:28;;;;;;;14.00;7.57;;;;;;;;;;6302704;28;20110;-76
2023/07/18 09:19:37;;;;;;;12.73;6.35;;;;;;;;;;6302634;28;20350;-77
2023/07/18 09:22:42;;;;;;;10.52;6.57;;;;;;;;;;6303013;28;20110;-76
2023/07/18 09:25:43;;;;;;;13.65;6.50;;;;;;;;;;6302721;28;20046;-74
2023/07/18 09:28:45;;;;;;;13.38;6.75;;;;;;;;;;6302728;28;20220;-76
2023/07/18 09:31:50;;;;;;;11.88;6.60;;;;;;;;;;6302510;28;20290;-76
2023/07/18 09:34:52;;;;;;;11.65;6.28;;;;;;;;;;6302992;28;20064;-76
2023/07/18 09:37:53;;;;;;;10.18;6.07;;;;;;;;;;6304221;28;20123;-76
2023/07/18 09:40:55;;;;;;;10.93;5.50;;;;;;;;;;6302258;28;20044;-76
2023/07/18 09:43:57;;;;;;;8.88;5.82;;;;;;;;;;6302591;28;20213;-76
2023/07/18 09:47:00;;;;;;;9.13;6.15;;;;;;;;;;6302815;28;20102;-76
2023/07/18 09:50:02;;;;;;;10.80;5.45;;;;;;;;;;6302418;28;20048;-76
2023/07/18 09:53:07;;;;;;;8.48;5.97;;;;;;;;;;6302331;28;20461;-76
2023/07/18 09:56:09;;;;;;;8.40;5.30;;;;;;;;;;6303024;28;20162;-77
2023/07/18 09:59:11;;;;;;;8.63;4.75;;;;;;;;;;6301133;28;20104;-76
2023/07/18 10:02:14;;;;;;;9.95;5.32;;;;;;;;;;6302043;28;20232;-76
2023/07/18 10:05:16;;;;;;;9.13;5.65;;;;;;;;;;6303317;28;21996;-76
2023/07/18 10:08:17;;;;;;;11.77;5.10;;;;;;;;;;6301994;28;20044;-77
2023/07/18 10:11:19;;;;;;;10.15;5.53;;;;;;;;;;6303797;28;20052;-77
2023/07/18 10:14:20;;;;;;;8.07;4.32;;;;;;;;;;6300451;28;20049;-76
2023/07/18 10:17:26;;;;;;;9.88;5.15;;;;;;;;;;6300244;28;20056;-76
2023/07/18 10:20:31;;;;;;;10.88;5.07;;;;;;;;;;6300350;28;20395;-77
2023/07/18 10:23:39;;;;;;;8.70;4.13;;;;;;;;;;6300522;28;20336;-77
2023/07/18 10:26:41;;;;;;;6.50;4.75;;;;;;;;;;6300382;28;20060;-77
2023/07/18 10:29:43;;;;;;;11.25;4.72;;;;;;;;;;6299685;28;20352;-76
2023/07/18 10:32:52;;;;;;;11.10;4.55;;;;;;;;;;6300231;28;20060;-76
2023/07/18 10:35:54;;;;;;;8.68;4.25;;;;;;;;;;6302578;28;20053;-77
2023/07/18 10:38:57;;;;;;;10.15;4.68;;;;;;;;;;6301287;28;20056;-76
2023/07/18 10:42:05;;;;;;;9.80;4.55;;;;;;;;;;6301189;28;20078;-76
2023/07/18 10:45:07;;;;;;;8.32;3.85;;;;;;;;;;6300693;28;20057;-75
2023/07/18 10:48:15;;;;;;;9.48;4.40;;;;;;;;;;6300697;28;20048;-76
2023/07/18 10:51:16;;;;;;;8.77;4.80;;;;;;;;;;6300504;28;20083;-75
2023/07/18 10:54:18;;;;;;;12.68;5.32;;;;;;;;;;6299127;28;20048;-77
2023/07/18 10:57:24;;;;;;;6.57;4.18;;;;;;;;;;6299718;28;20052;-74
2023/07/18 11:00:25;;;;;;;8.30;4.53;;;;;;;;;;6300583;28;20101;-75
2023/07/18 11:03:31;;;;;;;8.90;4.57;;;;;;;;;;6300762;28;20052;-76
2023/07/18 11:06:32;;;;;;;9.07;4.60;;;;;;;;;;6299877;28;20902;-75
2023/07/18 11:09:35;;;;;;;8.38;4.20;;;;;;;;;;6297772;28;20319;-77
2023/07/18 11:12:37;;;;;;;13.32;7.80;;;;;;;;;;6302263;28;20056;-76
2023/07/18 11:15:38;;;;;;;10.02;4.70;;;;;;;;;;6297805;28;20059;-75
2023/07/18 11:18:41;;;;;;;10.68;4.90;;;;;;;;;;6298541;28;20319;-76
2023/07/18 11:21:43;;;;;;;6.10;4.00;;;;;;;;;;6299124;28;20048;-75
2023/07/18 11:24:45;;;;;;;;;;;;;;;;;;6299500;28;20127;-74
2023/07/18 11:27:49;;;;;;;10.43;4.57;;;;;;;;;;6298020;28;19920;-76
2023/07/18 11:30:51;;;;;;;10.40;5.30;;;;;;;;;;6299593;28;20052;-76
2023/07/18 11:33:54;;;;;;;10.65;4.80;;;;;;;;;;6301247;28;20056;-76
2023/07/18 11:36:58;;;;;;;11.75;5.00;;;;;;;;;;6297132;28;20060;-75
2023/07/18 11:40:00;;;;;;;9.25;5.85;;;;;;;;;;6302406;28;20064;-76
2023/07/18 11:43:01;;;;;;;18.10;4.90;;;;;;;;;;6297789;28;20052;-76
2023/07/18 11:46:03;;;;;;;8.95;5.72;;;;;;;;;;6299538;28;20052;-74
2023/07/18 11:49:06;;;;;;;8.40;4.82;;;;;;;;;;6298207;28;20067;-76
2023/07/18 11:52:08;;;;;;;11.43;5.10;;;;;;;;;;6299789;28;20127;-76
2023/07/18 11:55:10;;;;;;;13.00;4.93;;;;;;;;;;6298546;28;20136;-76
2023/07/18 11:58:11;;;;;;;12.05;5.53;;;;;;;;;;6299655;28;20060;-76
2023/07/18 12:01:13;;;;;;;10.15;5.20;;;;;;;;;;6298153;28;20252;-76
2023/07/18 12:04:15;;;;;;;9.13;5.20;;;;;;;;;;6298828;28;20048;-76
2023/07/18 12:07:18;;;;;;;13.02;5.22;;;;;;;;;;6299777;28;20276;-76
2023/07/18 12:10:21;;;;;;;9.18;4.50;;;;;;;;;;6299430;28;20176;-76
2023/07/18 12:13:22;;;;;;;8.55;4.75;;;;;;;;;;6298421;28;20048;-77
2023/07/18 12:16:24;;;;;;;10.80;5.25;;;;;;;;;;6298121;28;20244;-77
2023/07/18 12:19:26;;;;;;;10.23;5.03;;;;;;;;;;6296502;28;20056;-77
2023/07/18 12:22:28;;;;;;;9.57;4.72;;;;;;;;;;6297980;28;20059;-77
2023/07/18 12:25:31;;;;;;;13.13;4.50;;;;;;;;;;6298751;28;20041;-77
2023/07/18 12:28:33;;;;;;;9.77;5.10;;;;;;;;;;6297447;28;20049;-77
2023/07/18 12:31:34;;;;;;;8.10;4.63;;;;;;;;;;6297907;28;20238;-77
2023/07/18 12:34:35;;;;;;;;;;;;;;;;;;6300665;28;20040;-76
2023/07/18 12:37:38;;;;;;;9.93;5.00;;;;;;;;;;6300057;28;19924;-76
2023/07/18 12:40:40;;;;;;;11.40;5.28;;;;;;;;;;6301222;28;20098;-77
2023/07/18 12:43:41;;;;;;;;;;;;;;;;;;6303456;28;20367;-76
2023/07/18 12:46:42;;;;;;;6.32;4.18;;;;;;;;;;6301412;28;19946;-76
2023/07/18 12:49:44;;;;;;;;;;;;;;;;;;6304120;28;20098;-76
2023/07/18 12:52:45;;;;;;;;;;;;;;;;;;6303932;28;20183;-76
2023/07/18 12:55:48;;;;;;;10.38;4.90;;;;;;;;;;6301437;28;19947;-76
2023/07/18 12:58:51;;;;;;;9.15;4.78;;;;;;;;;;6302044;28;20234;-76
2023/07/18 13:01:53;;;;;;;8.68;5.35;;;;;;;;;;6302852;28;20044;-76
2023/07/18 13:04:54;;;;;;;;;;;;;;;;;;6305480;28;20048;-76
2023/07/18 13:07:55;;;;;;;10.13;4.45;;;;;;;;;;6302259;28;20184;-76
2023/07/18 13:10:56;;;;;;;;;;;;;;;;;;6304138;28;20056;-76
2023/07/18 13:13:59;;;;;;;10.88;4.72;;;;;;;;;;6302571;28;20230;-76
2023/07/18 13:17:01;;;;;;;7.43;4.05;;;;;;;;;;6300318;28;20061;-76
2023/07/18 13:20:02;;;;;;;10.50;5.13;;;;;;;;;;6301706;28;20054;-76
2023/07/18 13:23:04;;;;;;;9.23;4.40;;;;;;;;;;6301639;28;20044;-77
2023/07/18 13:26:06;;;;;;;13.15;4.90;;;;;;;;;;6302864;28;20151;-76
2023/07/18 13:29:09;;;;;;;8.57;4.03;;;;;;;;;;6299640;28;20056;-77
2023/07/18 13:32:11;;;;;;;10.93;4.88;;;;;;;;;;6301469;28;20102;-77
2023/07/18 13:35:12;;;;;;;7.63;4.82;;;;;;;;;;6302281;28;20049;-77
2023/07/18 13:38:13;;;;;;;;;;;;;;;;;;6302531;28;20056;-77
2023/07/18 13:41:15;;;;;;;11.90;5.10;;;;;;;;;;6301005;28;19940;-77
2023/07/18 13:44:18;;;;;;;10.65;5.43;;;;;;;;;;6296579;28;20462;-79
2023/07/18 13:47:19;;;;;;;9.02;4.75;;;;;;;;;;6299620;28;20049;-80
2023/07/18 13:50:20;;;;;;;12.38;5.60;;;;;;;;;;6297149;28;20048;-80
2023/07/18 13:53:22;;;;;;;15.35;6.18;;;;;;;;;;6302205;28;20056;-80
2023/07/18 13:56:23;;;;;;;13.30;6.65;;;;;;;;;;6300973;28;20084;-77
2023/07/18 13:59:26;;;;;;;10.45;5.32;;;;;;;;;;6301697;28;20340;-79
2023/07/18 14:02:28;;;;;;;14.48;5.50;;;;;;;;;;6302628;28;20052;-78
2023/07/18 14:05:29;;;;;;;10.55;4.93;;;;;;;;;;6299505;28;20414;-77
2023/07/18 14:08:31;;;;;;;12.57;5.40;;;;;;;;;;6302086;28;20056;-80
2023/07/18 14:11:32;;;;;;;8.70;5.00;;;;;;;;;;6298763;28;20053;-79
2023/07/18 14:14:35;;;;;;;12.23;5.45;;;;;;;;;;6302703;28;20135;-79
2023/07/18 14:17:36;;;;;;;9.52;4.90;;;;;;;;;;6297370;28;20256;-80
2023/07/18 14:20:38;;;;;;;9.60;4.95;;;;;;;;;;6300142;28;20049;-80
2023/07/18 14:23:39;;;;;;;10.95;5.25;;;;;;;;;;6300871;28;20063;-79
2023/07/18 14:26:41;;;;;;;6.47;4.63;;;;;;;;;;6299187;28;20225;-79
2023/07/18 14:29:44;;;;;;;12.15;5.03;;;;;;;;;;6302795;28;20049;-79
2023/07/18 14:32:45;;;;;;;13.57;5.05;;;;;;;;;;6298617;28;20151;-78
2023/07/18 14:35:47;;;;;;;11.35;5.07;;;;;;;;;;6303269;28;20221;-79
2023/07/18 14:38:48;;;;;;;8.90;5.00;;;;;;;;;;6301962;28;20239;-77
2023/07/18 14:41:50;;;;;;;11.13;5.03;;;;;;;;;;6301532;28;20348;-79
2023/07/18 14:44:53;;;;;;;11.73;5.00;;;;;;;;;;6300926;28;20146;-79
2023/07/18 14:47:55;;;;;;;12.10;5.60;;;;;;;;;;6299912;28;20047;-79
2023/07/18 14:50:56;;;;;;;7.63;4.80;;;;;;;;;;6300028;28;20072;-78
2023/07/18 14:53:58;;;;;;;12.57;5.43;;;;;;;;;;6301484;28;20052;-78
2023/07/18 14:56:59;;;;;;;10.60;5.93;;;;;;;;;;6299697;28;20139;-78
2023/07/18 15:00:03;;;;;;;13.13;6.15;;;;;;;;;;6297454;28;20059;-79
2023/07/18 15:03:05;;;;;;;10.80;5.80;;;;;;;;;;6299296;28;20346;-77
2023/07/18 15:06:06;;;;;;;16.88;5.47;;;;;;;;;;6301148;28;20044;-79
2023/07/18 15:09:08;;;;;;;10.57;5.03;;;;;;;;;;6300055;28;20059;-78
2023/07/18 15:12:09;;;;;;;12.70;5.70;;;;;;;;;;6298141;28;20079;-78
2023/07/18 15:15:12;;;;;;;10.60;5.32;;;;;;;;;;6297043;28;20048;-78
2023/07/18 15:18:15;;;;;;;9.48;5.57;;;;;;;;;;6297856;28;20053;-78
2023/07/18 15:21:16;;;;;;;13.55;6.05;;;;;;;;;;6298485;28;20082;-79
2023/07/18 15:24:18;;;;;;;9.90;5.90;;;;;;;;;;6297829;28;20048;-77
2023/07/18 15:27:19;;;;;;;12.40;6.50;;;;;;;;;;6298174;28;20052;-79
2023/07/18 15:30:22;;;;;;;9.20;5.57;;;;;;;;;;6298800;28;20861;-79
2023/07/18 15:33:24;;;;;;;14.55;6.45;;;;;;;;;;6299967;28;20063;-79
2023/07/18 15:36:25;;;;;;;9.77;5.60;;;;;;;;;;6300280;28;20062;-79
2023/07/18 15:39:27;;;;;;;9.95;5.47;;;;;;;;;;6299672;28;20052;-78
2023/07/18 15:42:28;;;;;;;11.20;6.05;;;;;;;;;;6298645;28;20453;-79
2023/07/18 15:45:31;;;;;;;14.02;6.60;;;;;;;;;;6298773;28;20048;-78
2023/07/18 15:48:32;;;;;;;10.20;5.72;;;;;;;;;;6299005;28;20108;-78
2023/07/18 15:51:34;;;;;;;15.82;6.53;;;;;;;;;;6299603;28;20259;-79
2023/07/18 15:54:35;;;;;;;14.60;6.25;;;;;;;;;;6300971;28;20059;-78
2023/07/18 15:57:37;;;;;;;16.58;6.43;;;;;;;;;;6298788;28;20048;-77
2023/07/18 16:00:40;;;;;;;10.03;5.93;;;;;;;;;;6299261;28;20044;-79
2023/07/18 16:03:41;;;;;;;14.75;6.82;;;;;;;;;;6299164;28;20470;-79
2023/07/18 16:06:43;;;;;;;12.40;6.23;;;;;;;;;;6298375;28;20079;-79
2023/07/18 16:09:48;;;;;;;13.63;7.10;;;;;;;;;;6297528;28;20045;-79
2023/07/18 16:12:50;;;;;;;12.93;6.60;;;;;;;;;;6303764;28;20718;-77
2023/07/18 16:15:53;;;;;;;14.98;7.00;;;;;;;;;;6305786;28;20054;-78
2023/07/18 16:18:55;;;;;;;16.05;7.45;;;;;;;;;;6306648;28;20068;-77
2023/07/18 16:21:57;;;;;;;12.73;6.75;;;;;;;;;;6306574;28;20048;-76
2023/07/18 16:24:59;;;;;;;9.00;6.20;;;;;;;;;;6305552;28;20143;-77
2023/07/18 16:28:00;;;;;;;14.13;6.50;;;;;;;;;;6307356;28;20095;-78
2023/07/18 16:31:03;;;;;;;10.23;6.17;;;;;;;;;;6306283;28;20058;-76
2023/07/18 16:34:05;;;;;;;11.00;6.35;;;;;;;;;;6308455;28;20381;-76
2023/07/18 16:37:06;;;;;;;9.93;6.43;;;;;;;;;;6305826;28;20052;-78
2023/07/18 16:40:09;;;;;;;11.37;6.27;;;;;;;;;;6308408;28;20228;-76
2023/07/18 16:43:10;;;;;;;12.85;6.03;;;;;;;;;;6306955;28;20155;-76
2023/07/18 16:46:14;;;;;;;11.67;6.70;;;;;;;;;;6304472;28;20067;-78
2023/07/18 16:49:15;;;;;;;13.60;6.32;;;;;;;;;;6304480;28;20053;-78
2023/07/18 16:52:16;;;;;;;8.83;5.40;;;;;;;;;;6307351;28;20058;-74
2023/07/18 16:55:18;;;;;;;14.77;6.70;;;;;;;;;;6305719;28;20201;-77
2023/07/18 16:58:19;;;;;;;13.15;6.20;;;;;;;;;;6306975;28;20059;-78
2023/07/18 17:01:22;;;;;;;9.85;6.18;;;;;;;;;;6305969;28;20053;-78
2023/07/18 17:04:24;;;;;;;12.15;6.18;;;;;;;;;;6307216;28;20086;-77
2023/07/18 17:07:25;;;;;;;11.02;6.40;;;;;;;;;;6307196;28;20048;-77
2023/07/18 17:10:27;;;;;;;13.87;6.20;;;;;;;;;;6307764;28;20326;-77
2023/07/18 17:13:29;;;;;;;12.02;6.07;;;;;;;;;;6304560;28;20463;-77
2023/07/18 17:16:32;;;;;;;7.47;5.77;;;;;;;;;;6307803;28;20067;-77
2023/07/18 17:19:33;;;;;;;11.48;5.82;;;;;;;;;;6304186;28;20072;-76
2023/07/18 17:22:35;;;;;;;10.73;6.10;;;;;;;;;;6305735;28;20056;-76
2023/07/18 17:25:36;;;;;;;8.20;5.78;;;;;;;;;;6300708;28;20056;-76
2023/07/18 17:28:37;;;;;;;14.73;5.97;;;;;;;;;;6304216;28;20054;-77
2023/07/18 17:31:40;;;;;;;13.63;7.00;;;;;;;;;;6299816;28;20237;-77
2023/07/18 17:34:42;;;;;;;9.35;6.18;;;;;;;;;;6301331;28;20282;-79
2023/07/18 17:37:43;;;;;;;14.80;5.87;;;;;;;;;;6301778;28;20052;-79
2023/07/18 17:40:48;;;;;;;13.70;6.57;;;;;;;;;;6303050;28;20059;-78
2023/07/18 17:43:49;;;;;;;13.95;6.38;;;;;;;;;;6301854;28;20053;-78
2023/07/18 17:46:52;;;;;;;9.43;6.68;;;;;;;;;;6302948;28;20044;-79
2023/07/18 17:49:54;;;;;;;13.98;7.72;;;;;;;;;;6302724;28;20098;-78
2023/07/18 17:52:56;;;;;;;13.00;6.17;;;;;;;;;;6302278;28;20232;-78
2023/07/18 17:55:57;;;;;;;11.38;6.00;;;;;;;;;;6301697;28;20044;-78
2023/07/18 17:58:58;;;;;;;8.75;5.93;;;;;;;;;;6301140;28;20070;-79
2023/07/18 18:02:01;;;;;;;13.53;6.40;;;;;;;;;;6300846;28;20090;-79